createdAt,value
2019-01-26T00:03:46.149Z,8.77
2019-01-26T00:08:49.235Z,8.50
2019-01-26T00:13:52.320Z,7.97
2019-01-26T00:18:57.222Z,9.57
2019-01-26T00:24:00.356Z,7.80
2019-01-26T00:29:04.134Z,8.27
2019-01-26T00:34:07.856Z,7.67
2019-01-26T00:39:11.565Z,7.70
2019-01-26T00:44:14.983Z,7.17
2019-01-26T00:49:18.454Z,7.43
2019-01-26T00:54:21.552Z,7.10
2019-01-26T00:59:24.930Z,7.17
2019-01-26T01:04:28.113Z,7.50
2019-01-26T01:09:31.462Z,7.67
2019-01-26T01:14:34.565Z,6.37
2019-01-26T01:19:37.996Z,7.03
2019-01-26T01:24:41.425Z,7.57
2019-01-26T01:29:44.862Z,7.07
2019-01-26T01:34:48.002Z,9.83
2019-01-26T01:39:51.744Z,7.30
2019-01-26T01:44:55.157Z,7.00
2019-01-26T01:49:58.808Z,5.83
2019-01-26T01:55:02.479Z,5.77
2019-01-26T02:00:12.146Z,7.00
2019-01-26T02:05:15.227Z,7.20
2019-01-26T02:10:22.161Z,6.53
2019-01-26T02:15:25.576Z,5.50
2019-01-26T02:20:28.992Z,5.25
2019-01-26T02:25:32.151Z,6.87
2019-01-26T02:30:35.232Z,5.00
2019-01-26T02:35:38.646Z,5.60
2019-01-26T02:40:41.727Z,5.70
2019-01-26T02:45:45.152Z,5.73
2019-01-26T02:50:48.599Z,5.00
2019-01-26T02:55:51.971Z,4.73
2019-01-26T03:00:55.690Z,4.33
2019-01-26T03:05:59.096Z,4.35
2019-01-26T03:11:02.839Z,4.53
2019-01-26T03:16:06.245Z,4.43
2019-01-26T03:21:09.344Z,4.67
2019-01-26T03:26:12.796Z,4.37
2019-01-26T03:31:16.210Z,5.23
2019-01-26T03:36:19.301Z,4.30
2019-01-26T03:41:23.020Z,3.70
2019-01-26T03:46:26.458Z,4.10
2019-01-26T03:51:29.873Z,4.23
2019-01-26T03:56:32.953Z,4.40
2019-01-26T04:01:36.762Z,4.17
2019-01-26T04:06:40.207Z,6.60
2019-01-26T04:11:43.607Z,5.20
2019-01-26T04:16:55.709Z,4.83
2019-01-26T04:21:59.098Z,5.80
2019-01-26T04:27:02.174Z,7.17
2019-01-26T04:32:05.846Z,8.50
2019-01-26T04:37:09.589Z,5.90
2019-01-26T04:42:12.708Z,6.23
2019-01-26T04:47:15.783Z,6.73
2019-01-26T04:52:19.187Z,5.90
2019-01-26T04:57:22.581Z,5.67
2019-01-26T05:02:25.663Z,6.03
2019-01-26T05:07:29.054Z,6.33
2019-01-26T05:12:32.160Z,6.00
2019-01-26T05:17:39.510Z,7.40
2019-01-26T05:22:40.359Z,8.90
2019-01-26T05:27:44.036Z,9.93
2019-01-26T05:32:47.430Z,13.53
2019-01-26T05:37:50.766Z,13.40
2019-01-26T05:42:54.183Z,16.67
2019-01-26T05:47:57.261Z,17.47
2019-01-26T05:53:00.997Z,17.50
2019-01-26T05:58:04.923Z,18.20
2019-01-26T06:03:08.331Z,19.23
2019-01-26T06:08:11.739Z,18.80
2019-01-26T06:13:15.086Z,19.60
2019-01-26T06:18:18.546Z,19.50
2019-01-26T06:23:21.958Z,17.43
2019-01-26T06:28:25.037Z,17.30
2019-01-26T06:33:28.094Z,20.00
2019-01-26T06:38:31.165Z,22.17
2019-01-26T06:43:36.369Z,19.60
2019-01-26T06:48:39.447Z,17.50
2019-01-26T06:53:42.813Z,23.30
2019-01-26T06:58:46.213Z,17.83
2019-01-26T07:03:49.612Z,16.50
2019-01-26T07:08:53.018Z,17.83
2019-01-26T07:13:56.117Z,17.10
2019-01-26T07:18:59.501Z,18.40
2019-01-26T07:24:02.586Z,15.87
2019-01-26T07:29:05.650Z,16.63
2019-01-26T07:34:08.741Z,15.97
2019-01-26T07:39:11.818Z,15.10
2019-01-26T07:44:15.216Z,15.67
2019-01-26T07:49:18.315Z,18.30
2019-01-26T07:54:21.634Z,14.47
2019-01-26T07:59:25.040Z,12.97
2019-01-26T08:04:28.436Z,12.07
2019-01-26T08:09:31.851Z,12.70
2019-01-26T08:14:35.279Z,8.50
2019-01-26T08:19:38.340Z,7.47
2019-01-26T08:24:42.128Z,7.17
2019-01-26T08:29:45.169Z,6.77
2019-01-26T08:34:48.934Z,5.97
2019-01-26T08:39:52.010Z,5.07
2019-01-26T08:44:55.364Z,5.60
2019-01-26T08:49:58.770Z,5.13
2019-01-26T08:55:02.160Z,5.10
2019-01-26T09:00:14.585Z,4.07
2019-01-26T09:05:18.381Z,5.53
2019-01-26T09:10:21.771Z,4.27
2019-01-26T09:15:24.931Z,4.87
2019-01-26T09:20:28.283Z,5.50
2019-01-26T09:25:31.388Z,12.77
2019-01-26T09:30:34.473Z,4.67
2019-01-26T09:35:37.554Z,7.73
2019-01-26T09:40:40.996Z,5.60
2019-01-26T09:45:44.365Z,4.75
2019-01-26T09:50:47.469Z,4.53
2019-01-26T09:55:50.876Z,4.80
2019-01-26T10:00:54.585Z,5.27
2019-01-26T10:05:58.009Z,4.10
2019-01-26T10:11:01.492Z,3.73
2019-01-26T10:16:04.661Z,4.43
2019-01-26T10:21:07.747Z,2.90
2019-01-26T10:26:11.270Z,2.80
2019-01-26T10:31:14.684Z,2.53
2019-01-26T10:36:19.821Z,2.70
2019-01-26T10:41:33.710Z,3.00
2019-01-26T10:46:36.805Z,3.20
2019-01-26T10:51:39.879Z,3.27
2019-01-26T10:56:43.282Z,3.40
2019-01-26T11:01:46.408Z,3.47
2019-01-26T11:06:49.504Z,3.30
2019-01-26T11:11:52.920Z,4.10
2019-01-26T11:16:56.049Z,4.13
2019-01-26T11:21:59.179Z,4.03
2019-01-26T11:27:02.674Z,4.67
2019-01-26T11:32:06.080Z,4.37
2019-01-26T11:37:09.489Z,3.85
2019-01-26T11:42:12.603Z,4.57
2019-01-26T11:47:16.000Z,4.50
2019-01-26T11:52:19.412Z,4.80
2019-01-26T11:57:22.507Z,4.90
2019-01-26T12:02:30.040Z,5.40
2019-01-26T12:07:31.229Z,5.10
2019-01-26T12:12:34.640Z,5.30
2019-01-26T12:17:37.966Z,5.20
2019-01-26T12:22:41.466Z,5.27
2019-01-26T12:27:44.871Z,5.20
2019-01-26T12:32:47.962Z,4.97
2019-01-26T12:37:51.057Z,4.83
2019-01-26T12:42:54.138Z,5.20
2019-01-26T12:47:57.898Z,4.97
2019-01-26T12:53:01.332Z,5.00
2019-01-26T12:58:04.477Z,5.37
2019-01-26T13:03:07.568Z,4.23
2019-01-26T13:08:11.007Z,3.77
2019-01-26T13:13:14.084Z,3.93
2019-01-26T13:18:17.657Z,4.60
2019-01-26T13:23:20.757Z,3.00
2019-01-26T13:28:24.189Z,3.53
2019-01-26T13:33:27.394Z,2.83
2019-01-26T13:38:31.800Z,2.37
2019-01-26T13:43:35.150Z,2.27
2019-01-26T13:48:38.560Z,2.43
2019-01-26T13:53:42.003Z,2.43
2019-01-26T13:58:45.149Z,2.43
2019-01-26T14:03:48.236Z,2.40
2019-01-26T14:08:51.641Z,2.43
2019-01-26T14:13:55.059Z,2.23
2019-01-26T14:18:58.399Z,2.23
2019-01-26T14:24:16.875Z,2.50
2019-01-26T14:29:20.371Z,2.03
2019-01-26T14:34:24.158Z,1.90
2019-01-26T14:39:28.235Z,3.47
2019-01-26T14:44:31.779Z,1.50
2019-01-26T14:49:35.290Z,1.63
2019-01-26T14:54:38.757Z,1.67
2019-01-26T14:59:42.501Z,1.63
2019-01-26T15:04:46.049Z,1.80
2019-01-26T15:09:49.541Z,1.62
2019-01-26T15:14:52.717Z,1.80
2019-01-26T15:19:55.890Z,1.90
2019-01-26T15:24:59.065Z,2.10
2019-01-26T15:30:02.246Z,1.67
2019-01-26T15:35:06.895Z,1.70
2019-01-26T15:40:11.468Z,2.00
2019-01-26T15:45:19.256Z,2.10
2019-01-26T15:50:22.758Z,2.90
2019-01-26T15:55:26.705Z,2.10
2019-01-26T16:00:31.336Z,2.97
2019-01-26T16:05:34.505Z,2.27
2019-01-26T16:10:37.685Z,2.27
2019-01-26T16:15:40.864Z,2.50
2019-01-26T16:20:44.678Z,2.53
2019-01-26T16:25:47.926Z,2.57
2019-01-26T16:30:51.686Z,2.20
2019-01-26T16:35:55.177Z,2.83
2019-01-26T16:41:00.211Z,2.40
2019-01-26T16:46:03.394Z,2.77
2019-01-26T16:51:08.732Z,3.17
2019-01-26T16:56:11.969Z,3.00
2019-01-26T17:01:15.117Z,2.90
2019-01-26T17:06:18.630Z,3.27
2019-01-26T17:11:22.135Z,3.10
2019-01-26T17:16:25.621Z,3.23
2019-01-26T17:21:29.433Z,2.83
2019-01-26T17:26:32.925Z,3.50
2019-01-26T17:31:36.437Z,3.40
2019-01-26T17:36:39.614Z,3.63
2019-01-26T17:41:42.777Z,3.47
2019-01-26T17:46:46.271Z,3.47
2019-01-26T17:51:49.765Z,3.98
2019-01-26T17:56:53.549Z,3.90
2019-01-26T18:01:57.056Z,4.00
2019-01-26T18:07:00.555Z,3.33
2019-01-26T18:12:04.021Z,3.60
2019-01-26T18:17:07.781Z,3.03
2019-01-26T18:22:12.177Z,3.30
2019-01-26T18:27:15.339Z,3.07
2019-01-26T18:32:18.849Z,3.27
2019-01-26T18:37:22.012Z,2.93
2019-01-26T18:42:25.507Z,2.90
2019-01-26T18:47:29.006Z,2.80
2019-01-26T18:52:32.468Z,2.90
2019-01-26T18:57:35.992Z,2.17
2019-01-26T19:02:39.527Z,2.20
2019-01-26T19:07:44.113Z,2.40
2019-01-26T19:12:47.553Z,2.03
2019-01-26T19:17:51.369Z,2.10
2019-01-26T19:22:54.940Z,2.07
2019-01-26T19:27:58.446Z,1.93
2019-01-26T19:33:01.759Z,2.15
2019-01-26T19:38:04.932Z,1.83
2019-01-26T19:43:08.100Z,2.00
2019-01-26T19:48:11.673Z,2.20
2019-01-26T19:53:14.831Z,1.90
2019-01-26T19:58:19.094Z,1.93
2019-01-26T20:03:22.582Z,1.80
2019-01-26T20:08:26.434Z,1.70
2019-01-26T20:13:30.818Z,1.90
2019-01-26T20:18:34.800Z,2.20
2019-01-26T20:23:38.222Z,1.90
2019-01-26T20:28:42.033Z,1.90
2019-01-26T20:33:45.862Z,1.97
2019-01-26T20:38:49.682Z,2.50
2019-01-26T20:43:52.852Z,2.33
2019-01-26T20:48:56.016Z,2.67
2019-01-26T20:53:59.505Z,3.50
2019-01-26T20:59:03.000Z,2.70
2019-01-26T21:04:06.484Z,2.90
2019-01-26T21:09:10.476Z,2.70
2019-01-26T21:14:13.949Z,2.90
2019-01-26T21:19:18.026Z,2.63
2019-01-26T21:24:21.753Z,2.50
2019-01-26T21:29:25.221Z,2.50
2019-01-26T21:34:28.989Z,2.37
2019-01-26T21:39:32.448Z,2.70
2019-01-26T21:44:35.915Z,2.63
2019-01-26T21:49:39.051Z,2.63
2019-01-26T21:54:42.174Z,2.60
2019-01-26T21:59:45.858Z,2.30
2019-01-26T22:04:49.289Z,2.23
2019-01-26T22:09:53.002Z,2.10
2019-01-26T22:14:56.414Z,2.47
2019-01-26T22:19:59.836Z,2.47
2019-01-26T22:25:03.957Z,2.23
2019-01-26T22:30:25.713Z,3.20
2019-01-26T22:35:29.382Z,2.70
2019-01-26T22:40:34.523Z,2.43
2019-01-26T22:45:37.911Z,2.27
2019-01-26T22:50:40.987Z,2.10
2019-01-26T22:55:44.399Z,1.90
2019-01-26T23:00:53.657Z,1.53
2019-01-26T23:06:32.139Z,1.80
2019-01-26T23:11:56.857Z,1.70
2019-01-26T23:17:06.391Z,1.73
2019-01-26T23:22:26.315Z,2.27
2019-01-26T23:27:49.355Z,2.00
2019-01-26T23:32:53.091Z,1.70
2019-01-26T23:37:56.785Z,1.70
2019-01-26T23:43:00.211Z,2.00
2019-01-26T23:48:03.681Z,1.90
2019-01-26T23:53:07.092Z,1.82
2019-01-26T23:58:10.177Z,1.83
